createdAt,value
2023-01-28T00:02:15.882Z,59.00
2023-01-28T00:04:42.422Z,59.00
2023-01-28T00:07:08.974Z,59.10
2023-01-28T00:09:35.472Z,59.60
2023-01-28T00:12:01.998Z,59.30
2023-01-28T00:14:28.520Z,58.20
2023-01-28T00:16:55.037Z,59.30
2023-01-28T00:19:21.647Z,58.50
2023-01-28T00:21:48.172Z,59.70
2023-01-28T00:24:15.401Z,59.80
2023-01-28T00:26:42.237Z,60.80
2023-01-28T00:29:08.751Z,61.10
2023-01-28T00:31:35.501Z,60.20
2023-01-28T00:34:02.573Z,60.40
2023-01-28T00:36:29.095Z,60.70
2023-01-28T00:38:57.065Z,59.10
2023-01-28T00:41:24.705Z,59.20
2023-01-28T00:43:52.022Z,59.50
2023-01-28T00:46:18.872Z,60.40
2023-01-28T00:48:45.716Z,61.10
2023-01-28T00:51:13.297Z,60.60
2023-01-28T00:53:40.344Z,61.20
2023-01-28T00:56:07.442Z,61.50
2023-01-28T00:58:34.340Z,61.10
2023-01-28T01:01:08.336Z,61.10
2023-01-28T01:03:34.911Z,60.90
2023-01-28T01:06:01.414Z,60.40
2023-01-28T01:08:34.985Z,60.20
2023-01-28T01:11:03.002Z,59.10
2023-01-28T01:13:30.457Z,59.10
2023-01-28T01:16:05.513Z,59.10
2023-01-28T01:18:32.207Z,59.40
2023-01-28T01:20:58.876Z,59.10
2023-01-28T01:23:29.612Z,59.10
2023-01-28T01:25:56.349Z,58.40
2023-01-28T01:28:22.991Z,59.20
2023-01-28T01:30:49.874Z,59.40
2023-01-28T01:33:16.627Z,60.60
2023-01-28T01:35:43.101Z,60.60
2023-01-28T01:38:09.599Z,59.90
2023-01-28T01:40:36.276Z,59.20
2023-01-28T01:43:11.658Z,59.10
2023-01-28T01:45:38.225Z,60.00
2023-01-28T01:48:14.060Z,60.30
2023-01-28T01:50:48.998Z,60.60
2023-01-28T01:53:20.039Z,60.70
2023-01-28T01:55:47.841Z,61.10
2023-01-28T01:58:19.699Z,61.80
2023-01-28T02:00:46.278Z,62.00
2023-01-28T02:03:13.018Z,61.60
2023-01-28T02:05:39.596Z,61.70
2023-01-28T02:08:21.524Z,61.90
2023-01-28T02:11:05.458Z,60.80
2023-01-28T02:13:38.066Z,59.30
2023-01-28T02:16:05.239Z,60.00
2023-01-28T02:18:32.429Z,60.70
2023-01-28T02:20:58.937Z,62.10
2023-01-28T02:23:49.065Z,60.90
2023-01-28T02:26:26.319Z,61.00
2023-01-28T02:29:11.384Z,62.00
2023-01-28T02:31:48.781Z,63.70
2023-01-28T02:34:19.731Z,63.70
2023-01-28T02:36:58.164Z,63.70
2023-01-28T02:39:26.442Z,63.50
2023-01-28T02:41:58.993Z,61.10
2023-01-28T02:44:25.963Z,61.30
2023-01-28T02:47:11.592Z,62.20
2023-01-28T02:49:40.985Z,63.60
2023-01-28T02:52:42.863Z,62.40
2023-01-28T02:55:20.290Z,62.80
2023-01-28T02:57:58.222Z,61.50
2023-01-28T03:00:32.980Z,62.50
2023-01-28T03:03:05.055Z,63.60
2023-01-28T03:05:35.215Z,63.60
2023-01-28T03:08:23.276Z,63.60
2023-01-28T03:11:09.469Z,63.60
2023-01-28T03:13:56.197Z,61.70
2023-01-28T03:16:41.299Z,58.70
2023-01-28T03:19:27.223Z,56.80
2023-01-28T03:22:12.421Z,57.40
2023-01-28T03:25:01.926Z,59.60
2023-01-28T03:27:51.885Z,60.20
2023-01-28T03:30:38.974Z,61.10
2023-01-28T03:33:24.644Z,62.50
2023-01-28T03:36:09.723Z,63.70
2023-01-28T03:38:42.087Z,59.70
2023-01-28T03:41:09.989Z,60.30
2023-01-28T03:43:36.891Z,60.70
2023-01-28T03:46:06.090Z,62.10
2023-01-28T03:48:32.762Z,63.70
2023-01-28T03:51:00.393Z,63.70
2023-01-28T03:53:28.113Z,63.60
2023-01-28T03:55:56.502Z,63.70
2023-01-28T03:58:26.966Z,64.20
2023-01-28T04:00:53.720Z,63.70
2023-01-28T04:03:21.408Z,63.70
2023-01-28T04:05:59.057Z,63.70
2023-01-28T04:08:25.592Z,63.70
2023-01-28T04:10:52.174Z,63.70
2023-01-28T04:13:18.685Z,63.80
2023-01-28T04:15:45.555Z,64.80
2023-01-28T04:18:12.748Z,64.90
2023-01-28T04:20:39.760Z,65.20
2023-01-28T04:23:07.701Z,63.70
2023-01-28T04:25:34.370Z,63.70
2023-01-28T04:28:00.896Z,63.70
2023-01-28T04:30:28.221Z,63.70
2023-01-28T04:32:55.598Z,63.70
2023-01-28T04:35:22.120Z,63.70
2023-01-28T04:37:48.649Z,63.80
2023-01-28T04:40:15.212Z,64.10
2023-01-28T04:42:41.763Z,65.20
2023-01-28T04:45:08.744Z,66.40
2023-01-28T04:47:35.302Z,67.30
2023-01-28T04:50:01.835Z,68.00
2023-01-28T04:52:28.395Z,69.40
2023-01-28T04:54:54.948Z,69.70
2023-01-28T04:57:21.532Z,69.60
2023-01-28T04:59:48.013Z,69.60
2023-01-28T05:02:14.579Z,70.20
2023-01-28T05:04:41.156Z,69.70
2023-01-28T05:07:07.673Z,68.40
2023-01-28T05:09:34.226Z,67.80
2023-01-28T05:12:00.774Z,68.20
2023-01-28T05:14:27.363Z,68.90
2023-01-28T05:16:54.089Z,67.80
2023-01-28T05:19:20.630Z,67.50
2023-01-28T05:21:47.203Z,67.00
2023-01-28T05:24:14.336Z,67.50
2023-01-28T05:26:40.981Z,68.60
2023-01-28T05:29:08.006Z,70.60
2023-01-28T05:31:34.693Z,71.10
2023-01-28T05:34:01.536Z,70.90
2023-01-28T05:36:28.113Z,70.40
2023-01-28T05:38:54.652Z,70.30
2023-01-28T05:41:21.475Z,71.70
2023-01-28T05:43:48.238Z,72.10
2023-01-28T05:46:14.771Z,72.40
2023-01-28T05:48:41.480Z,72.00
2023-01-28T05:51:11.181Z,68.50
2023-01-28T05:53:37.841Z,67.30
2023-01-28T05:56:04.519Z,67.90
2023-01-28T05:58:32.090Z,67.50
2023-01-28T06:00:58.619Z,67.90
2023-01-28T06:03:25.176Z,68.90
2023-01-28T06:05:51.744Z,70.80
2023-01-28T06:08:18.269Z,71.30
2023-01-28T06:10:44.794Z,71.30
2023-01-28T06:13:11.324Z,70.30
2023-01-28T06:15:38.091Z,71.00
2023-01-28T06:18:04.780Z,72.00
2023-01-28T06:20:31.292Z,72.00
2023-01-28T06:22:57.826Z,72.00
2023-01-28T06:25:24.749Z,72.10
2023-01-28T06:27:51.391Z,72.00
2023-01-28T06:30:18.370Z,72.00
2023-01-28T06:32:44.868Z,72.00
2023-01-28T06:35:11.921Z,72.20
2023-01-28T06:37:39.591Z,72.10
2023-01-28T06:40:06.542Z,72.00
2023-01-28T06:42:33.100Z,72.00
2023-01-28T06:44:59.673Z,72.20
2023-01-28T06:47:26.183Z,73.50
2023-01-28T06:49:52.711Z,73.40
2023-01-28T06:52:19.269Z,73.50
2023-01-28T06:54:45.769Z,72.90
2023-01-28T06:57:12.348Z,72.90
2023-01-28T06:59:39.223Z,72.80
2023-01-28T07:02:05.896Z,74.60
2023-01-28T07:04:32.456Z,72.60
2023-01-28T07:06:59.147Z,73.00
2023-01-28T07:09:25.682Z,73.40
2023-01-28T07:11:52.313Z,73.70
2023-01-28T07:14:18.875Z,73.50
2023-01-28T07:16:45.381Z,72.70
2023-01-28T07:19:11.975Z,72.20
2023-01-28T07:21:38.482Z,72.10
2023-01-28T07:24:06.123Z,72.20
2023-01-28T07:26:32.715Z,72.10
2023-01-28T07:29:00.368Z,72.20
2023-01-28T07:31:26.930Z,71.50
2023-01-28T07:33:53.575Z,70.60
2023-01-28T07:36:20.469Z,72.10
2023-01-28T07:38:47.023Z,72.10
2023-01-28T07:41:13.531Z,72.20
2023-01-28T07:43:40.427Z,72.20
2023-01-28T07:46:06.981Z,70.10
2023-01-28T07:48:33.529Z,69.40
2023-01-28T07:51:00.135Z,70.00
2023-01-28T07:53:27.141Z,69.30
2023-01-28T07:55:58.508Z,70.00
2023-01-28T07:58:25.020Z,69.70
2023-01-28T08:00:51.581Z,69.30
2023-01-28T08:03:18.285Z,69.50
2023-01-28T08:05:45.970Z,69.70
2023-01-28T08:08:13.210Z,70.40
2023-01-28T08:10:40.298Z,70.70
2023-01-28T08:13:07.517Z,71.20
2023-01-28T08:15:35.363Z,72.30
2023-01-28T08:18:02.802Z,72.30
2023-01-28T08:20:30.087Z,71.30
2023-01-28T08:23:05.713Z,72.40
2023-01-28T08:25:33.012Z,71.30
2023-01-28T08:27:59.666Z,70.30
2023-01-28T08:30:26.335Z,67.80
2023-01-28T08:32:55.672Z,67.80
2023-01-28T08:35:22.242Z,68.20
2023-01-28T08:37:48.755Z,67.80
2023-01-28T08:40:15.599Z,68.30
2023-01-28T08:42:52.306Z,67.80
2023-01-28T08:45:19.449Z,64.10
2023-01-28T08:47:52.927Z,64.10
2023-01-28T08:50:20.327Z,64.10
2023-01-28T08:52:48.698Z,64.10
2023-01-28T08:55:18.990Z,64.10
2023-01-28T08:57:45.792Z,64.10
2023-01-28T09:00:13.050Z,62.10
2023-01-28T09:02:39.818Z,55.70
2023-01-28T09:05:06.584Z,57.60
2023-01-28T09:07:34.232Z,55.40
2023-01-28T09:10:00.758Z,54.50
2023-01-28T09:12:27.395Z,54.80
2023-01-28T09:14:53.943Z,54.80
2023-01-28T09:17:21.163Z,55.30
2023-01-28T09:19:47.743Z,54.90
2023-01-28T09:22:14.274Z,54.80
2023-01-28T09:24:40.814Z,54.80
2023-01-28T09:27:07.305Z,52.20
2023-01-28T09:29:34.206Z,51.70
2023-01-28T09:32:00.871Z,51.50
2023-01-28T09:34:27.519Z,52.50
2023-01-28T09:36:54.028Z,48.70
2023-01-28T09:39:20.709Z,49.10
2023-01-28T09:42:04.357Z,51.40
2023-01-28T09:44:33.901Z,47.10
2023-01-28T09:47:02.129Z,47.50
2023-01-28T09:49:28.616Z,44.60
2023-01-28T09:51:56.901Z,44.50
2023-01-28T09:54:34.891Z,44.50
2023-01-28T09:57:05.469Z,41.70
2023-01-28T09:59:33.825Z,40.60
2023-01-28T10:02:24.351Z,39.20
2023-01-28T10:04:58.588Z,41.10
2023-01-28T10:07:32.637Z,41.60
2023-01-28T10:10:07.496Z,39.60
2023-01-28T10:12:40.066Z,36.70
2023-01-28T10:15:24.672Z,36.90
2023-01-28T10:18:03.911Z,36.40
2023-01-28T10:20:41.709Z,33.90
2023-01-28T10:23:14.268Z,34.00
2023-01-28T10:25:44.933Z,33.10
2023-01-28T10:28:18.099Z,31.70
2023-01-28T10:30:46.033Z,34.00
2023-01-28T10:33:27.757Z,31.10
2023-01-28T10:35:54.700Z,30.00
2023-01-28T10:38:22.500Z,31.20
2023-01-28T10:40:49.183Z,29.80
2023-01-28T10:43:17.872Z,28.20
2023-01-28T10:45:53.084Z,27.00
2023-01-28T10:48:29.203Z,28.10
2023-01-28T10:50:59.455Z,28.90
2023-01-28T10:53:39.654Z,29.30
2023-01-28T10:56:15.057Z,29.80
2023-01-28T10:58:50.417Z,29.80
2023-01-28T11:01:17.117Z,29.40
2023-01-28T11:03:53.191Z,28.70
2023-01-28T11:06:30.498Z,27.00
2023-01-28T11:08:57.026Z,25.60
2023-01-28T11:11:27.499Z,25.60
2023-01-28T11:13:55.610Z,25.50
2023-01-28T11:16:22.195Z,25.60
2023-01-28T11:18:51.724Z,25.50
2023-01-28T11:21:22.710Z,24.90
2023-01-28T11:23:52.173Z,24.90
2023-01-28T11:26:21.052Z,24.90
2023-01-28T11:28:47.633Z,23.70
2023-01-28T11:31:16.095Z,24.90
2023-01-28T11:33:44.771Z,22.90
2023-01-28T11:36:15.649Z,22.00
2023-01-28T11:38:58.748Z,21.60
2023-01-28T11:41:32.903Z,20.90
2023-01-28T11:44:00.596Z,23.20
2023-01-28T11:46:36.125Z,20.40
2023-01-28T11:49:05.701Z,21.20
2023-01-28T11:51:37.729Z,21.00
2023-01-28T11:54:16.172Z,20.50
2023-01-28T11:56:54.920Z,20.60
2023-01-28T11:59:34.571Z,20.20
2023-01-28T12:02:20.049Z,18.90
2023-01-28T12:05:05.678Z,18.10
2023-01-28T12:07:47.535Z,19.30
2023-01-28T12:10:20.308Z,19.00
2023-01-28T12:12:53.107Z,18.10
2023-01-28T12:15:52.502Z,17.10
2023-01-28T12:18:18.997Z,16.00
2023-01-28T12:21:09.127Z,16.10
2023-01-28T12:23:48.917Z,17.60
2023-01-28T12:26:16.775Z,17.10
2023-01-28T12:28:52.855Z,17.60
2023-01-28T12:31:31.467Z,19.00
2023-01-28T12:34:11.408Z,17.70
2023-01-28T12:36:37.869Z,18.00
2023-01-28T12:39:17.672Z,16.10
2023-01-28T12:41:47.828Z,16.90
2023-01-28T12:44:23.072Z,17.90
2023-01-28T12:47:04.015Z,16.80
2023-01-28T12:49:44.923Z,17.90
2023-01-28T12:52:11.423Z,17.10
2023-01-28T12:54:44.391Z,16.10
2023-01-28T12:57:16.728Z,15.90
2023-01-28T12:59:47.564Z,15.90
2023-01-28T13:02:14.179Z,15.80
2023-01-28T13:04:44.139Z,15.80
2023-01-28T13:07:28.584Z,15.80
2023-01-28T13:10:00.280Z,15.90
2023-01-28T13:12:26.992Z,15.80
2023-01-28T13:14:54.313Z,16.80
2023-01-28T13:17:31.202Z,15.80
2023-01-28T13:19:58.691Z,15.80
2023-01-28T13:22:34.012Z,16.80
2023-01-28T13:25:14.201Z,18.80
2023-01-28T13:27:41.033Z,16.40
2023-01-28T13:30:28.053Z,15.90
2023-01-28T13:32:58.887Z,15.90
2023-01-28T13:35:31.686Z,15.80
2023-01-28T13:37:59.292Z,15.90
2023-01-28T13:40:27.172Z,15.80
2023-01-28T13:42:58.365Z,15.80
2023-01-28T13:45:25.204Z,15.70
2023-01-28T13:47:55.085Z,16.50
2023-01-28T13:50:23.723Z,18.70
2023-01-28T13:53:02.449Z,20.10
2023-01-28T13:55:44.137Z,20.20
2023-01-28T13:58:31.809Z,17.80
2023-01-28T14:00:58.310Z,16.50
2023-01-28T14:03:34.792Z,15.80
2023-01-28T14:06:22.080Z,15.80
2023-01-28T14:08:57.640Z,15.80
2023-01-28T14:11:26.992Z,16.40
2023-01-28T14:14:02.856Z,15.80
2023-01-28T14:16:29.336Z,16.80
2023-01-28T14:18:59.362Z,16.20
2023-01-28T14:21:26.598Z,15.80
2023-01-28T14:23:54.799Z,15.80
2023-01-28T14:26:21.359Z,15.80
2023-01-28T14:28:56.910Z,15.70
2023-01-28T14:31:28.213Z,15.90
2023-01-28T14:33:57.605Z,16.00
2023-01-28T14:36:24.946Z,16.70
2023-01-28T14:38:51.745Z,16.10
2023-01-28T14:41:26.244Z,16.50
2023-01-28T14:43:54.384Z,16.50
2023-01-28T14:46:30.229Z,15.60
2023-01-28T14:49:13.232Z,16.20
2023-01-28T14:51:48.370Z,15.60
2023-01-28T14:54:24.769Z,15.60
2023-01-28T14:57:03.375Z,16.20
2023-01-28T14:59:34.414Z,15.50
2023-01-28T15:02:02.142Z,15.60
2023-01-28T15:04:33.771Z,16.70
2023-01-28T15:07:20.595Z,18.20
2023-01-28T15:09:47.615Z,18.00
2023-01-28T15:12:15.667Z,17.30
2023-01-28T15:14:43.174Z,18.20
2023-01-28T15:17:19.626Z,17.20
2023-01-28T15:19:46.194Z,18.10
2023-01-28T15:22:15.309Z,19.00
2023-01-28T15:24:43.384Z,19.50
2023-01-28T15:27:16.904Z,20.30
2023-01-28T15:29:50.734Z,21.10
2023-01-28T15:32:20.737Z,22.10
2023-01-28T15:34:47.270Z,22.20
2023-01-28T15:37:13.882Z,22.30
2023-01-28T15:39:41.080Z,22.80
2023-01-28T15:42:07.850Z,22.20
2023-01-28T15:44:38.435Z,22.20
2023-01-28T15:47:26.070Z,22.70
2023-01-28T15:49:53.916Z,24.00
2023-01-28T15:52:30.491Z,22.90
2023-01-28T15:54:57.598Z,23.70
2023-01-28T15:57:28.789Z,23.60
2023-01-28T16:00:04.901Z,23.80
2023-01-28T16:02:31.756Z,23.90
2023-01-28T16:04:59.251Z,23.90
2023-01-28T16:07:27.191Z,23.80
2023-01-28T16:09:54.593Z,23.70
2023-01-28T16:12:21.698Z,25.30
2023-01-28T16:14:54.145Z,24.60
2023-01-28T16:17:22.751Z,25.70
2023-01-28T16:19:50.643Z,26.20
2023-01-28T16:22:19.184Z,26.10
2023-01-28T16:24:50.593Z,26.50
2023-01-28T16:27:27.284Z,25.40
2023-01-28T16:29:54.113Z,25.70
2023-01-28T16:32:28.387Z,25.70
2023-01-28T16:34:54.948Z,25.10
2023-01-28T16:37:21.468Z,26.40
2023-01-28T16:39:48.425Z,26.60
2023-01-28T16:42:15.264Z,27.20
2023-01-28T16:44:41.771Z,26.40
2023-01-28T16:47:08.679Z,27.40
2023-01-28T16:49:35.488Z,26.10
2023-01-28T16:52:02.557Z,26.20
2023-01-28T16:54:29.265Z,26.60
2023-01-28T16:56:56.666Z,26.90
2023-01-28T16:59:23.254Z,27.30
2023-01-28T17:01:49.927Z,26.40
2023-01-28T17:04:16.530Z,27.40
2023-01-28T17:06:44.443Z,29.40
2023-01-28T17:09:11.986Z,28.40
2023-01-28T17:11:40.506Z,28.90
2023-01-28T17:14:07.134Z,27.90
2023-01-28T17:16:33.713Z,26.90
2023-01-28T17:19:00.488Z,26.40
2023-01-28T17:21:27.043Z,26.60
2023-01-28T17:23:53.640Z,26.00
2023-01-28T17:26:20.248Z,26.10
2023-01-28T17:28:51.503Z,26.30
2023-01-28T17:31:18.074Z,26.00
2023-01-28T17:33:44.621Z,26.80
2023-01-28T17:36:11.184Z,26.10
2023-01-28T17:38:37.856Z,25.70
2023-01-28T17:41:05.593Z,26.30
2023-01-28T17:43:32.530Z,26.30
2023-01-28T17:45:59.104Z,26.10
2023-01-28T17:48:26.018Z,26.60
2023-01-28T17:50:57.031Z,26.00
2023-01-28T17:53:23.581Z,26.30
2023-01-28T17:55:50.074Z,26.60
2023-01-28T17:58:16.652Z,27.40
2023-01-28T18:00:43.298Z,28.70
2023-01-28T18:03:13.371Z,28.30
2023-01-28T18:05:40.308Z,28.90
2023-01-28T18:08:07.042Z,29.40
2023-01-28T18:10:33.679Z,28.80
2023-01-28T18:13:00.225Z,27.60
2023-01-28T18:15:26.894Z,27.60
2023-01-28T18:17:53.422Z,26.50
2023-01-28T18:20:20.427Z,27.40
2023-01-28T18:22:46.955Z,28.50
2023-01-28T18:25:15.368Z,28.60
2023-01-28T18:27:42.209Z,28.10
2023-01-28T18:30:09.045Z,28.20
2023-01-28T18:32:35.633Z,28.50
2023-01-28T18:35:02.566Z,29.10
2023-01-28T18:37:29.211Z,29.10
2023-01-28T18:39:55.754Z,28.20
2023-01-28T18:42:22.276Z,28.10
2023-01-28T18:44:48.885Z,26.50
2023-01-28T18:47:15.520Z,27.60
2023-01-28T18:49:42.359Z,28.80
2023-01-28T18:52:09.169Z,27.50
2023-01-28T18:54:35.725Z,27.40
2023-01-28T18:57:02.407Z,26.80
2023-01-28T18:59:28.896Z,27.50
2023-01-28T19:01:55.436Z,27.90
2023-01-28T19:04:22.260Z,27.40
2023-01-28T19:06:49.043Z,27.40
2023-01-28T19:09:16.147Z,25.60
2023-01-28T19:11:43.257Z,26.50
2023-01-28T19:14:12.288Z,27.60
2023-01-28T19:16:38.932Z,27.20
2023-01-28T19:19:05.794Z,27.30
2023-01-28T19:21:33.033Z,27.40
2023-01-28T19:24:00.686Z,27.40
2023-01-28T19:26:27.914Z,26.30
2023-01-28T19:28:54.477Z,25.80
2023-01-28T19:31:21.804Z,26.30
2023-01-28T19:33:48.506Z,25.40
2023-01-28T19:36:15.447Z,25.60
2023-01-28T19:38:41.989Z,25.30
2023-01-28T19:41:08.660Z,24.90
2023-01-28T19:43:35.500Z,25.50
2023-01-28T19:46:03.592Z,25.10
2023-01-28T19:48:30.395Z,25.00
2023-01-28T19:50:56.941Z,22.90
2023-01-28T19:53:23.560Z,23.70
2023-01-28T19:55:52.160Z,24.20
2023-01-28T19:58:18.929Z,25.40
2023-01-28T20:00:45.618Z,26.10
2023-01-28T20:03:12.780Z,25.20
2023-01-28T20:05:39.437Z,25.20
2023-01-28T20:08:05.969Z,25.20
2023-01-28T20:10:32.999Z,25.40
2023-01-28T20:12:59.581Z,23.90
2023-01-28T20:15:26.206Z,24.30
2023-01-28T20:17:52.910Z,24.80
2023-01-28T20:20:19.603Z,24.80
2023-01-28T20:22:46.135Z,25.30
2023-01-28T20:25:12.677Z,25.20
2023-01-28T20:27:39.227Z,24.50
2023-01-28T20:30:06.107Z,25.00
2023-01-28T20:32:32.746Z,25.40
2023-01-28T20:34:59.288Z,24.60
2023-01-28T20:37:25.974Z,25.10
2023-01-28T20:39:52.512Z,25.80
2023-01-28T20:42:19.014Z,25.50
2023-01-28T20:44:45.554Z,25.40
2023-01-28T20:47:12.141Z,25.20
2023-01-28T20:49:38.708Z,23.90
2023-01-28T20:52:05.618Z,24.10
2023-01-28T20:54:32.154Z,25.20
2023-01-28T20:56:58.797Z,26.30
2023-01-28T20:59:25.574Z,27.20
2023-01-28T21:01:52.155Z,27.10
2023-01-28T21:04:18.690Z,26.70
2023-01-28T21:06:45.293Z,27.20
2023-01-28T21:09:11.829Z,25.10
2023-01-28T21:11:38.342Z,22.90
2023-01-28T21:14:04.914Z,22.50
2023-01-28T21:16:31.824Z,22.50
2023-01-28T21:18:58.399Z,22.50
2023-01-28T21:21:26.237Z,22.50
2023-01-28T21:23:56.677Z,22.40
2023-01-28T21:26:23.652Z,22.50
2023-01-28T21:28:50.313Z,22.50
2023-01-28T21:31:17.901Z,21.60
2023-01-28T21:33:48.109Z,21.10
2023-01-28T21:36:15.647Z,21.60
2023-01-28T21:38:42.535Z,22.50
2023-01-28T21:41:09.188Z,21.40
2023-01-28T21:43:36.103Z,22.40
2023-01-28T21:46:02.736Z,22.40
2023-01-28T21:48:29.427Z,21.00
2023-01-28T21:51:14.825Z,21.10
2023-01-28T21:53:42.008Z,20.70
2023-01-28T21:56:09.332Z,19.00
2023-01-28T21:58:55.116Z,19.10
2023-01-28T22:01:21.783Z,20.10
2023-01-28T22:03:48.599Z,21.10
2023-01-28T22:06:15.109Z,20.50
2023-01-28T22:08:41.658Z,20.70
2023-01-28T22:11:08.445Z,20.10
2023-01-28T22:13:36.665Z,20.40
2023-01-28T22:16:03.761Z,22.20
2023-01-28T22:18:30.296Z,21.60
2023-01-28T22:20:57.945Z,22.20
2023-01-28T22:23:24.580Z,22.20
2023-01-28T22:25:51.165Z,22.30
2023-01-28T22:28:17.749Z,22.10
2023-01-28T22:30:44.287Z,22.20
2023-01-28T22:33:10.821Z,21.50
2023-01-28T22:35:37.399Z,20.30
2023-01-28T22:38:04.319Z,20.60
2023-01-28T22:40:32.116Z,20.90
2023-01-28T22:42:58.670Z,21.10
2023-01-28T22:45:25.184Z,21.80
2023-01-28T22:47:51.685Z,21.00
2023-01-28T22:50:18.624Z,20.60
2023-01-28T22:52:46.568Z,19.80
2023-01-28T22:55:13.162Z,19.50
2023-01-28T22:57:39.753Z,20.10
2023-01-28T23:00:08.838Z,20.40
2023-01-28T23:02:35.478Z,20.90
2023-01-28T23:05:02.001Z,20.80
2023-01-28T23:07:28.488Z,21.20
2023-01-28T23:09:54.997Z,19.30
2023-01-28T23:12:21.622Z,17.90
2023-01-28T23:15:07.113Z,18.60
2023-01-28T23:17:52.412Z,20.00
2023-01-28T23:20:37.608Z,18.80
2023-01-28T23:23:36.856Z,19.10
2023-01-28T23:26:04.644Z,19.00
2023-01-28T23:28:32.270Z,19.60
2023-01-28T23:30:59.023Z,19.80
2023-01-28T23:33:25.745Z,20.60
2023-01-28T23:35:52.347Z,20.90
2023-01-28T23:38:19.101Z,20.90
2023-01-28T23:40:45.643Z,20.70
2023-01-28T23:43:12.698Z,20.40
2023-01-28T23:45:39.403Z,20.30
2023-01-28T23:48:05.895Z,20.80
2023-01-28T23:50:32.673Z,20.50
2023-01-28T23:53:00.263Z,20.50
2023-01-28T23:55:27.010Z,21.20
2023-01-28T23:57:53.556Z,20.30
